Pagrindinis puslapis
METAR-TAF:

METAR-TAF

Oro uostai :

Theodore Francis Green State Airport

Providensas, Rod Ailandas, Jungtinės Amerikos Valstijos

platuma: 41-43-26N, ilguma: 071-25-41W, Aukštis: 16 m

Dabartinis oras

Ataskaita buvo paskelbta 49 minutes, ne 05:51 UTC
Vėjas 12 kt iš Vakarų su gūsio iki 16 kt
Temperatūra -1°C
Drėgmė 43%
Slėgis 1006 hPa
Matomumas: 16.1 km
Su prošvaistėmis ne aukštis 6000 ft

METAR: KPVD 280551Z 26012G16KT 10SM BKN060 M01/M12 A2972 RMK AO2 SLP063 T10061122 10033 21006 51014

Laikas: 01:40 (06:40 UTC)

Prognozė

Ataskaita buvo paskelbta 1 valandą ir 16 minutes, ne 05:24 UTC
Prognozė galioja nuo 28 metu 06 UTC su 29 metu 06 UTC
Vėjas 15 kt iš Vakarų su gūsio iki 30 kt
Matomumas: 10 km
Išsisklaidę debesys ne aukštis 5000 ft
Nuo 29 metu 0000 UTC
Vėjas 8 kt iš Vakarų/Pietvakarių
Matomumas: 10 km
Išsisklaidę debesys ne aukštis 6000 ft

TAF: KPVD 280524Z 2806/2906 26015G30KT P6SM SCT050 FM290000 25008KT P6SM SCT060

Orai ataskaitas ir orų prognozės (METAR, TAF).

turimą stotys yra geltonos ir raudonos taškus žemėlapyje.

Perkelti pele per norėdami pamatyti stoties vardą.

Tada spustelėkite, norėdami matyti oro stebėjimo ir prognozės.

Norėdami pakeisti žemėlapį: spustelėkite ant žalios mygtukų su juodo kryžiaus žemyn,; žalią mygtuką su brūkšneliu, jei norite nutolinti; arba žalių rodyklių gretimoms žemėlapius.


METAR-TAF: